createdAt,value
2023-12-10T08:26:40.053Z,96236.72
2023-12-10T08:27:41.795Z,96257.88
2023-12-10T08:28:43.334Z,96269.50
2023-12-10T08:29:44.875Z,96261.53
2023-12-10T08:30:46.627Z,96248.25
2023-12-10T08:31:48.027Z,96257.06
2023-12-10T08:37:46.378Z,96250.81
2023-12-10T08:38:48.269Z,96244.78
2023-12-10T08:39:50.767Z,96233.94
2023-12-10T08:40:52.235Z,96250.72
2023-12-10T08:41:53.672Z,96241.22
2023-12-10T08:42:55.360Z,96249.06
2023-12-10T08:43:57.199Z,96249.25
2023-12-10T08:45:01.344Z,96255.13
2023-12-10T08:46:03.581Z,96249.19
2023-12-10T08:47:05.348Z,96236.03
2023-12-10T08:48:06.936Z,96244.03
2023-12-10T08:49:09.318Z,96241.97
2023-12-10T08:50:10.934Z,96269.19
2023-12-10T08:51:12.351Z,96253.09
2023-12-10T08:52:13.861Z,96269.00
2023-12-10T08:53:15.302Z,96260.94
2023-12-10T08:54:17.642Z,96265.38
2023-12-10T08:55:19.262Z,96269.88
2023-12-10T08:56:20.785Z,96271.72
2023-12-10T08:57:23.159Z,96283.16
2023-12-10T08:58:24.805Z,96297.00
2023-12-10T08:59:26.328Z,96288.34
2023-12-10T09:00:27.996Z,96291.47
2023-12-10T09:01:29.747Z,96304.75
2023-12-10T09:02:31.575Z,96307.47
2023-12-10T09:03:33.497Z,96303.66
2023-12-10T09:04:35.124Z,96288.16
2023-12-10T09:05:36.792Z,96314.94
2023-12-10T09:06:38.308Z,96310.16
2023-12-10T09:07:39.852Z,96319.25
2023-12-10T09:18:04.236Z,96320.19
2023-12-10T09:19:05.957Z,96340.19
2023-12-10T09:20:08.619Z,96340.06
2023-12-10T09:21:10.130Z,96336.78
2023-12-10T09:22:11.720Z,96340.13
2023-12-10T09:23:13.629Z,96348.13
2023-12-10T09:24:16.270Z,96326.53
2023-12-10T09:25:17.781Z,96325.09
2023-12-10T09:26:20.819Z,96334.66
2023-12-10T09:27:22.481Z,96330.91
2023-12-10T09:28:24.266Z,96325.19
2023-12-10T09:29:25.749Z,96329.19
2023-12-10T09:30:27.267Z,96331.28
2023-12-10T09:31:28.956Z,96330.28
2023-12-10T09:32:30.890Z,96348.03
2023-12-10T09:33:32.831Z,96340.47
2023-12-10T09:34:34.821Z,96345.22
2023-12-10T09:35:36.736Z,96341.13
2023-12-10T09:36:38.306Z,96347.22
2023-12-10T09:37:39.954Z,96344.34
2023-12-10T09:38:41.445Z,96342.53
2023-12-10T09:39:43.043Z,96347.81
2023-12-10T09:49:54.860Z,96345.56
2023-12-10T09:50:56.491Z,96360.78
2023-12-10T09:59:41.582Z,96359.47
2023-12-10T10:00:43.769Z,96333.66
2023-12-10T10:08:11.294Z,96344.56
2023-12-10T10:09:21.231Z,96323.09
2023-12-10T10:17:01.461Z,96343.56
2023-12-10T10:18:06.047Z,96343.56
2023-12-10T10:24:54.403Z,96313.34
2023-12-10T10:25:55.884Z,96319.03
2023-12-10T10:26:58.091Z,96306.00
2023-12-10T10:27:59.603Z,96318.34
2023-12-10T10:29:03.151Z,96326.88
2023-12-10T10:30:05.436Z,96326.88
2023-12-10T10:31:07.676Z,96309.06
2023-12-10T10:32:16.129Z,96297.13
2023-12-10T10:33:17.854Z,96313.22
2023-12-10T10:34:20.271Z,96304.69
2023-12-10T10:35:21.991Z,96304.81
2023-12-10T10:36:23.675Z,96317.88
2023-12-10T10:37:25.600Z,96312.13
2023-12-10T10:49:21.939Z,96320.59
2023-12-10T10:50:26.570Z,96332.38
2023-12-10T11:00:03.582Z,96320.84
2023-12-10T11:01:07.081Z,96306.19
2023-12-10T11:07:07.535Z,96299.47
2023-12-10T11:08:11.617Z,96265.78
2023-12-10T11:09:13.163Z,96294.22
2023-12-10T11:10:14.809Z,96294.22
2023-12-10T11:11:16.315Z,96289.06
2023-12-10T11:12:40.973Z,96297.91
2023-12-10T11:13:43.136Z,96303.81
2023-12-10T11:14:44.551Z,96311.25
2023-12-10T11:23:33.569Z,96308.84
2023-12-10T11:24:35.209Z,96307.00
2023-12-10T11:30:29.182Z,96299.03
2023-12-10T11:31:30.706Z,96312.53
2023-12-10T11:32:32.128Z,96294.25
2023-12-10T11:33:33.782Z,96301.81
2023-12-10T11:34:35.503Z,96296.31
2023-12-10T11:35:37.459Z,96288.19
2023-12-10T11:36:39.903Z,96285.81
2023-12-10T11:37:44.546Z,96284.53
2023-12-10T11:38:47.900Z,96276.25
2023-12-10T11:39:49.865Z,96283.59
2023-12-10T11:40:51.347Z,96275.81
2023-12-10T11:41:59.775Z,96293.25
2023-12-10T11:43:09.150Z,96279.56
2023-12-10T11:44:11.455Z,96283.50
2023-12-10T11:45:14.563Z,96280.13
2023-12-10T11:46:26.467Z,96274.50
2023-12-10T11:47:33.819Z,96279.81
2023-12-10T11:48:35.801Z,96269.31
2023-12-10T11:49:37.502Z,96279.25
2023-12-10T11:50:39.013Z,96288.94
2023-12-10T11:51:42.538Z,96290.03
2023-12-10T11:52:44.078Z,96278.31
2023-12-10T11:53:46.994Z,96272.56
2023-12-10T11:54:48.746Z,96295.72
2023-12-10T11:55:52.522Z,96280.25
2023-12-10T11:56:54.306Z,96280.34
2023-12-10T11:57:57.719Z,96289.84
2023-12-10T11:59:00.220Z,96296.00
2023-12-10T12:00:05.997Z,96302.78
2023-12-10T12:01:08.652Z,96305.50
2023-12-10T12:02:10.326Z,96301.56
2023-12-10T12:03:11.906Z,96311.50
2023-12-10T12:04:13.605Z,96317.59
2023-12-10T12:05:17.911Z,96328.94
2023-12-10T12:06:19.981Z,96319.22
2023-12-10T12:07:24.887Z,96313.47
2023-12-10T12:08:29.552Z,96318.72
2023-12-10T12:09:31.605Z,96328.47
2023-12-10T12:10:37.781Z,96316.63
2023-12-10T12:11:40.488Z,96331.41
2023-12-10T12:12:46.617Z,96315.97
2023-12-10T12:13:48.190Z,96319.50
2023-12-10T12:14:52.310Z,96322.28
2023-12-10T12:15:54.311Z,96305.25
2023-12-10T12:26:57.116Z,96314.75
2023-12-10T12:33:20.147Z,96314.66
2023-12-10T12:34:21.877Z,96311.84
2023-12-10T12:40:01.757Z,96295.97
2023-12-10T12:41:05.522Z,96282.91
2023-12-10T12:42:07.095Z,96280.03
2023-12-10T12:43:08.901Z,96277.38
2023-12-10T12:49:45.200Z,96243.44
2023-12-10T12:50:46.694Z,96253.56
2023-12-10T12:51:48.282Z,96261.28
2023-12-10T13:08:45.084Z,96257.84
2023-12-10T13:17:05.466Z,96262.03
